createdAt,value
2023-02-04T00:02:07.601Z,5.28
2023-02-04T00:04:34.232Z,4.10
2023-02-04T00:07:00.853Z,4.82
2023-02-04T00:09:27.587Z,3.58
2023-02-04T00:11:54.189Z,3.90
2023-02-04T00:14:20.824Z,3.75
2023-02-04T00:16:47.444Z,4.53
2023-02-04T00:19:14.082Z,4.47
2023-02-04T00:21:40.690Z,3.45
2023-02-04T00:24:07.373Z,3.50
2023-02-04T00:26:33.991Z,4.03
2023-02-04T00:29:00.615Z,4.18
2023-02-04T00:31:27.378Z,4.75
2023-02-04T00:33:54.154Z,3.75
2023-02-04T00:36:20.859Z,3.53
2023-02-04T00:38:47.507Z,3.47
2023-02-04T00:41:14.199Z,3.97
2023-02-04T00:43:40.963Z,3.97
2023-02-04T00:46:07.870Z,3.95
2023-02-04T00:48:35.557Z,2.95
2023-02-04T00:51:02.565Z,3.83
2023-02-04T00:53:29.289Z,3.47
2023-02-04T00:55:57.459Z,4.97
2023-02-04T00:58:24.117Z,3.72
2023-02-04T01:00:50.866Z,3.95
2023-02-04T01:03:17.733Z,4.63
2023-02-04T01:05:44.360Z,4.13
2023-02-04T01:08:11.451Z,4.45
2023-02-04T01:10:38.144Z,4.03
2023-02-04T01:13:04.862Z,3.85
2023-02-04T01:15:31.658Z,3.75
2023-02-04T01:17:58.296Z,3.85
2023-02-04T01:20:24.966Z,3.25
2023-02-04T01:22:51.611Z,4.75
2023-02-04T01:25:19.425Z,3.95
2023-02-04T01:27:46.156Z,3.67
2023-02-04T01:30:14.974Z,3.92
2023-02-04T01:32:41.824Z,4.95
2023-02-04T01:35:08.710Z,4.80
2023-02-04T01:37:35.346Z,4.03
2023-02-04T01:40:02.324Z,3.78
2023-02-04T01:42:29.061Z,3.40
2023-02-04T01:44:55.741Z,3.85
2023-02-04T01:47:23.532Z,4.40
2023-02-04T01:49:52.859Z,5.18
2023-02-04T01:52:20.053Z,3.25
2023-02-04T01:54:46.936Z,4.20
2023-02-04T01:57:16.231Z,4.05
2023-02-04T01:59:47.347Z,3.63
2023-02-04T02:02:43.258Z,4.63
2023-02-04T02:05:13.134Z,3.97
2023-02-04T02:07:39.995Z,5.30
2023-02-04T02:10:09.554Z,4.30
2023-02-04T02:12:36.883Z,3.72
2023-02-04T02:15:04.237Z,3.38
2023-02-04T02:17:31.261Z,3.53
2023-02-04T02:19:57.953Z,3.10
2023-02-04T02:22:37.389Z,4.65
2023-02-04T02:25:13.293Z,3.47
2023-02-04T02:27:40.347Z,3.80
2023-02-04T02:30:09.482Z,4.25
2023-02-04T02:32:36.756Z,3.95
2023-02-04T02:35:05.099Z,3.20
2023-02-04T02:37:32.051Z,4.40
2023-02-04T02:39:58.809Z,4.40
2023-02-04T02:42:25.878Z,5.72
2023-02-04T02:44:54.051Z,3.60
2023-02-04T02:47:22.610Z,4.65
2023-02-04T02:49:51.454Z,3.53
2023-02-04T02:52:18.182Z,5.60
2023-02-04T02:54:45.194Z,3.30
2023-02-04T02:57:18.714Z,3.90
2023-02-04T02:59:46.023Z,4.38
2023-02-04T03:02:17.302Z,3.80
2023-02-04T03:04:49.520Z,3.42
2023-02-04T03:07:19.583Z,5.10
2023-02-04T03:09:46.361Z,4.13
2023-02-04T03:12:13.167Z,5.38
2023-02-04T03:14:40.251Z,4.05
2023-02-04T03:17:10.483Z,4.05
2023-02-04T03:19:38.801Z,4.43
2023-02-04T03:22:07.302Z,3.40
2023-02-04T03:24:34.958Z,4.40
2023-02-04T03:27:03.764Z,3.85
2023-02-04T03:29:30.517Z,4.32
2023-02-04T03:31:59.882Z,4.45
2023-02-04T03:34:26.739Z,3.50
2023-02-04T03:36:53.402Z,4.40
2023-02-04T03:39:20.077Z,4.45
2023-02-04T03:41:46.768Z,4.50
2023-02-04T03:44:13.420Z,4.15
2023-02-04T03:46:40.037Z,4.15
2023-02-04T03:49:06.655Z,3.78
2023-02-04T03:51:33.318Z,4.22
2023-02-04T03:53:59.926Z,3.92
2023-02-04T03:56:26.582Z,4.93
2023-02-04T03:58:53.345Z,4.00
2023-02-04T04:01:20.045Z,5.93
2023-02-04T04:03:46.842Z,4.38
2023-02-04T04:06:13.523Z,4.38
2023-02-04T04:08:40.173Z,4.30
2023-02-04T04:11:06.876Z,4.60
2023-02-04T04:13:33.672Z,4.78
2023-02-04T04:16:00.358Z,5.35
2023-02-04T04:18:27.077Z,4.22
2023-02-04T04:20:53.681Z,5.50
2023-02-04T04:23:20.444Z,4.53
2023-02-04T04:25:47.115Z,5.68
2023-02-04T04:28:13.884Z,5.88
2023-02-04T04:30:40.717Z,4.43
2023-02-04T04:33:07.659Z,5.32
2023-02-04T04:35:34.742Z,4.63
2023-02-04T04:38:02.418Z,4.30
2023-02-04T04:40:29.153Z,5.45
2023-02-04T04:42:56.389Z,4.90
2023-02-04T04:45:22.981Z,4.40
2023-02-04T04:47:49.682Z,4.88
2023-02-04T04:50:16.723Z,7.00
2023-02-04T04:52:43.372Z,5.00
2023-02-04T04:55:10.365Z,4.93
2023-02-04T04:57:37.071Z,6.63
2023-02-04T05:00:05.209Z,5.05
2023-02-04T05:02:31.936Z,5.00
2023-02-04T05:04:59.192Z,4.45
2023-02-04T05:07:25.847Z,4.97
2023-02-04T05:09:52.486Z,6.10
2023-02-04T05:12:19.061Z,5.65
2023-02-04T05:14:45.681Z,5.30
2023-02-04T05:17:12.509Z,4.95
2023-02-04T05:19:39.151Z,4.93
2023-02-04T05:22:05.753Z,4.93
2023-02-04T05:24:32.374Z,5.78
2023-02-04T05:26:58.981Z,5.13
2023-02-04T05:29:25.700Z,4.80
2023-02-04T05:31:52.349Z,4.55
2023-02-04T05:34:19.044Z,5.70
2023-02-04T05:36:45.622Z,5.38
2023-02-04T05:39:12.245Z,5.50
2023-02-04T05:41:39.521Z,5.07
2023-02-04T05:44:06.249Z,5.60
2023-02-04T05:46:32.918Z,5.65
2023-02-04T05:48:59.513Z,5.32
2023-02-04T05:51:26.084Z,4.95
2023-02-04T05:53:52.678Z,4.80
2023-02-04T05:56:19.269Z,5.72
2023-02-04T05:58:46.235Z,6.97
2023-02-04T06:01:12.830Z,5.90
2023-02-04T06:03:39.565Z,7.75
2023-02-04T06:06:06.462Z,5.88
2023-02-04T06:08:33.085Z,7.32
2023-02-04T06:10:59.719Z,6.05
2023-02-04T06:13:26.332Z,6.57
2023-02-04T06:15:52.967Z,5.93
2023-02-04T06:18:19.638Z,8.00
2023-02-04T06:20:46.203Z,9.15
2023-02-04T06:23:12.915Z,6.88
2023-02-04T06:25:39.519Z,7.55
2023-02-04T06:28:06.177Z,6.68
2023-02-04T06:30:33.336Z,7.38
2023-02-04T06:33:00.205Z,7.82
2023-02-04T06:35:26.788Z,7.95
2023-02-04T06:37:53.392Z,7.65
2023-02-04T06:40:20.029Z,7.78
2023-02-04T06:42:47.127Z,8.51
2023-02-04T06:45:13.747Z,8.55
2023-02-04T06:47:40.370Z,7.78
2023-02-04T06:50:07.418Z,7.70
2023-02-04T06:52:34.044Z,7.40
2023-02-04T06:55:00.743Z,7.35
2023-02-04T06:57:27.322Z,8.07
2023-02-04T06:59:53.974Z,6.82
2023-02-04T07:02:20.572Z,7.43
2023-02-04T07:04:47.873Z,7.53
2023-02-04T07:07:14.674Z,9.35
2023-02-04T07:09:42.470Z,7.10
2023-02-04T07:12:09.078Z,7.82
2023-02-04T07:14:35.683Z,6.40
2023-02-04T07:17:02.455Z,7.13
2023-02-04T07:19:29.133Z,8.27
2023-02-04T07:21:56.925Z,6.53
2023-02-04T07:24:24.136Z,6.93
2023-02-04T07:26:51.490Z,6.97
2023-02-04T07:29:25.613Z,7.57
2023-02-04T07:31:53.248Z,7.68
2023-02-04T07:34:20.407Z,7.32
2023-02-04T07:36:47.338Z,8.15
2023-02-04T07:39:14.071Z,9.40
2023-02-04T07:41:40.725Z,8.40
2023-02-04T07:44:07.528Z,8.32
2023-02-04T07:46:34.253Z,10.07
2023-02-04T07:49:01.169Z,10.55
2023-02-04T07:51:28.080Z,9.48
2023-02-04T07:53:56.195Z,9.75
2023-02-04T07:56:23.193Z,9.05
2023-02-04T07:58:49.927Z,10.73
2023-02-04T08:01:16.920Z,8.70
2023-02-04T08:03:43.837Z,8.90
2023-02-04T08:06:11.649Z,9.60
2023-02-04T08:08:38.323Z,10.02
2023-02-04T08:11:05.225Z,8.68
2023-02-04T08:13:31.901Z,9.45
2023-02-04T08:15:58.790Z,11.43
2023-02-04T08:18:25.494Z,12.73
2023-02-04T08:20:52.383Z,10.98
2023-02-04T08:23:19.219Z,13.75
2023-02-04T08:25:45.880Z,12.57
2023-02-04T08:28:12.602Z,12.95
2023-02-04T08:30:39.360Z,13.07
2023-02-04T08:33:06.163Z,13.65
2023-02-04T08:35:32.787Z,12.90
2023-02-04T08:37:59.394Z,13.95
2023-02-04T08:40:26.084Z,15.15
2023-02-04T08:42:52.832Z,15.50
2023-02-04T08:45:19.443Z,14.00
2023-02-04T08:47:46.247Z,12.88
2023-02-04T08:50:13.011Z,12.23
2023-02-04T08:52:39.663Z,13.82
2023-02-04T08:55:06.729Z,13.05
2023-02-04T08:57:34.899Z,12.80
2023-02-04T09:00:01.719Z,13.95
2023-02-04T09:02:28.480Z,12.55
2023-02-04T09:04:55.241Z,14.30
2023-02-04T09:07:22.382Z,13.00
2023-02-04T09:09:49.088Z,14.90
2023-02-04T09:12:15.783Z,13.45
2023-02-04T09:14:42.396Z,15.23
2023-02-04T09:17:09.100Z,14.80
2023-02-04T09:19:35.731Z,13.40
2023-02-04T09:22:02.478Z,13.57
2023-02-04T09:24:29.248Z,11.52
2023-02-04T09:26:55.897Z,13.88
2023-02-04T09:29:22.606Z,12.68
2023-02-04T09:31:49.346Z,12.43
2023-02-04T09:34:16.200Z,12.93
2023-02-04T09:36:42.890Z,12.15
2023-02-04T09:39:12.642Z,11.95
2023-02-04T09:41:40.504Z,11.75
2023-02-04T09:44:16.839Z,12.80
2023-02-04T09:46:52.192Z,12.38
2023-02-04T09:49:19.037Z,11.02
2023-02-04T09:51:47.793Z,11.40
2023-02-04T09:54:18.609Z,12.88
2023-02-04T09:56:46.210Z,11.63
2023-02-04T09:59:14.089Z,11.77
2023-02-04T10:01:41.280Z,13.25
2023-02-04T10:04:15.307Z,12.07
2023-02-04T10:06:43.926Z,12.98
2023-02-04T10:09:15.964Z,12.55
2023-02-04T10:11:47.377Z,10.88
2023-02-04T10:14:18.037Z,10.48
2023-02-04T10:16:51.078Z,11.70
2023-02-04T10:19:17.805Z,10.85
2023-02-04T10:21:45.960Z,11.70
2023-02-04T10:24:29.781Z,11.15
2023-02-04T10:27:08.424Z,11.48
2023-02-04T10:29:35.198Z,10.77
2023-02-04T10:32:01.813Z,11.40
2023-02-04T10:34:39.632Z,11.68
2023-02-04T10:37:22.705Z,11.10
2023-02-04T10:39:49.971Z,11.07
2023-02-04T10:42:24.244Z,12.35
2023-02-04T10:44:51.344Z,10.95
2023-02-04T10:47:23.750Z,9.80
2023-02-04T10:50:17.764Z,9.07
2023-02-04T10:52:47.357Z,9.50
2023-02-04T10:55:18.529Z,10.73
2023-02-04T10:57:47.537Z,11.57
2023-02-04T11:00:21.518Z,10.77
2023-02-04T11:02:58.938Z,10.77
2023-02-04T11:05:31.150Z,11.13
2023-02-04T11:07:57.940Z,12.10
2023-02-04T11:10:30.842Z,11.60
2023-02-04T11:12:57.755Z,11.02
2023-02-04T11:15:41.227Z,9.32
2023-02-04T11:18:11.080Z,10.60
2023-02-04T11:20:39.975Z,10.05
2023-02-04T11:23:29.715Z,10.40
2023-02-04T11:26:19.246Z,10.95
2023-02-04T11:28:48.093Z,12.38
2023-02-04T11:31:29.393Z,10.55
2023-02-04T11:34:11.429Z,12.40
2023-02-04T11:36:59.625Z,10.20
2023-02-04T11:39:34.011Z,9.57
2023-02-04T11:42:01.034Z,10.00
2023-02-04T11:44:28.521Z,10.20
2023-02-04T11:46:56.640Z,9.75
2023-02-04T11:49:25.542Z,9.10
2023-02-04T11:52:08.744Z,9.55
2023-02-04T11:54:36.500Z,9.73
2023-02-04T11:57:03.797Z,9.23
2023-02-04T11:59:30.670Z,9.35
2023-02-04T12:02:19.035Z,9.27
2023-02-04T12:04:57.519Z,8.52
2023-02-04T12:07:27.753Z,9.45
2023-02-04T12:09:59.447Z,10.10
2023-02-04T12:12:41.338Z,9.52
2023-02-04T12:15:20.868Z,9.32
2023-02-04T12:17:59.858Z,9.73
2023-02-04T12:20:32.578Z,10.02
2023-02-04T12:23:04.234Z,8.93
2023-02-04T12:25:32.084Z,7.40
2023-02-04T12:28:02.338Z,6.57
2023-02-04T12:30:57.833Z,6.47
2023-02-04T12:33:25.431Z,6.78
2023-02-04T12:35:53.657Z,6.43
2023-02-04T12:42:07.237Z,7.88
2023-02-04T12:44:35.575Z,6.57
2023-02-04T12:47:02.402Z,6.78
2023-02-04T12:49:29.161Z,6.80
2023-02-04T12:51:59.318Z,7.07
2023-02-04T12:54:26.088Z,6.80
2023-02-04T12:56:53.441Z,7.57
2023-02-04T12:59:20.085Z,7.22
2023-02-04T13:01:46.745Z,6.10
2023-02-04T13:04:13.601Z,5.57
2023-02-04T13:06:40.597Z,5.82
2023-02-04T13:09:07.778Z,6.18
2023-02-04T13:11:34.530Z,7.32
2023-02-04T13:14:01.340Z,6.60
2023-02-04T13:16:28.014Z,6.32
2023-02-04T13:18:55.198Z,6.50
2023-02-04T13:21:22.108Z,7.43
2023-02-04T13:23:49.053Z,7.95
2023-02-04T13:26:15.793Z,6.30
2023-02-04T13:28:42.455Z,6.35
2023-02-04T13:31:09.127Z,5.72
2023-02-04T13:33:36.141Z,5.20
2023-02-04T13:36:03.132Z,6.57
2023-02-04T13:38:29.784Z,5.47
2023-02-04T13:40:56.435Z,6.65
2023-02-04T13:43:23.703Z,6.47
2023-02-04T13:45:50.534Z,6.32
2023-02-04T13:48:17.448Z,5.63
2023-02-04T13:50:44.345Z,5.28
2023-02-04T13:53:11.116Z,5.20
2023-02-04T13:55:37.980Z,5.03
2023-02-04T13:58:05.121Z,5.10
2023-02-04T14:00:32.352Z,7.22
2023-02-04T14:02:59.734Z,5.30
2023-02-04T14:05:26.433Z,4.82
2023-02-04T14:07:53.167Z,6.43
2023-02-04T14:10:22.904Z,4.50
2023-02-04T14:12:49.718Z,5.97
2023-02-04T14:15:16.922Z,4.82
2023-02-04T14:17:43.790Z,5.72
2023-02-04T14:20:11.137Z,6.57
2023-02-04T14:22:38.491Z,4.90
2023-02-04T14:25:05.768Z,6.15
2023-02-04T14:27:32.844Z,4.68
2023-02-04T14:29:59.805Z,6.13
2023-02-04T14:32:26.546Z,5.82
2023-02-04T14:34:53.684Z,5.53
2023-02-04T14:37:20.448Z,5.63
2023-02-04T14:39:47.069Z,5.25
2023-02-04T14:42:13.671Z,5.07
2023-02-04T14:44:40.331Z,5.55
2023-02-04T14:47:06.976Z,5.47
2023-02-04T14:49:36.905Z,6.57
2023-02-04T14:52:04.414Z,5.68
2023-02-04T14:54:31.092Z,4.45
2023-02-04T14:56:57.817Z,6.00
2023-02-04T14:59:24.496Z,5.47
2023-02-04T15:01:51.157Z,6.28
2023-02-04T15:04:19.055Z,5.65
2023-02-04T15:06:46.090Z,5.38
2023-02-04T15:09:12.800Z,6.15
2023-02-04T15:11:39.520Z,5.45
2023-02-04T15:14:06.137Z,5.05
2023-02-04T15:16:33.040Z,5.07
2023-02-04T15:18:59.751Z,5.28
2023-02-04T15:21:27.266Z,5.65
2023-02-04T15:23:53.998Z,5.80
2023-02-04T15:26:20.753Z,5.75
2023-02-04T15:28:47.363Z,6.32
2023-02-04T15:31:14.255Z,5.35
2023-02-04T15:33:41.072Z,5.72
2023-02-04T15:36:07.999Z,6.15
2023-02-04T15:38:34.893Z,5.30
2023-02-04T15:41:03.163Z,6.25
2023-02-04T15:43:29.993Z,6.78
2023-02-04T15:45:57.185Z,5.85
2023-02-04T15:48:28.139Z,5.68
2023-02-04T15:50:55.624Z,5.67
2023-02-04T15:53:22.791Z,5.28
2023-02-04T15:55:49.478Z,4.95
2023-02-04T15:58:16.393Z,5.68
2023-02-04T16:00:43.205Z,5.68
2023-02-04T16:03:09.938Z,4.90
2023-02-04T16:05:36.812Z,5.35
2023-02-04T16:08:03.502Z,6.25
2023-02-04T16:10:30.234Z,5.70
2023-02-04T16:12:58.750Z,6.40
2023-02-04T16:15:25.539Z,8.13
2023-02-04T16:17:52.228Z,8.07
2023-02-04T16:20:19.108Z,5.75
2023-02-04T16:22:45.718Z,6.07
2023-02-04T16:25:12.366Z,6.00
2023-02-04T16:27:39.028Z,6.78
2023-02-04T16:30:06.304Z,7.43
2023-02-04T16:32:33.718Z,5.75
2023-02-04T16:35:02.279Z,5.30
2023-02-04T16:37:29.256Z,7.63
2023-02-04T16:39:56.271Z,5.95
2023-02-04T16:42:22.962Z,6.82
2023-02-04T16:44:49.656Z,5.15
2023-02-04T16:47:16.426Z,7.68
2023-02-04T16:49:44.770Z,6.38
2023-02-04T16:52:11.445Z,8.20
2023-02-04T16:54:38.110Z,5.55
2023-02-04T16:57:04.783Z,5.18
2023-02-04T16:59:32.105Z,5.38
2023-02-04T17:02:00.387Z,4.75
2023-02-04T17:04:27.824Z,6.53
2023-02-04T17:06:54.754Z,6.45
2023-02-04T17:09:21.429Z,8.00
2023-02-04T17:11:48.158Z,7.60
2023-02-04T17:14:15.779Z,7.35
2023-02-04T17:16:43.453Z,10.25
2023-02-04T17:19:11.296Z,7.53
2023-02-04T17:21:39.193Z,6.85
2023-02-04T17:24:11.315Z,7.75
2023-02-04T17:26:40.194Z,9.32
2023-02-04T17:29:09.388Z,6.40
2023-02-04T17:31:36.394Z,6.15
2023-02-04T17:34:03.868Z,6.60
2023-02-04T17:36:31.321Z,6.95
2023-02-04T17:38:58.377Z,8.98
2023-02-04T17:41:25.123Z,7.75
2023-02-04T17:43:51.915Z,8.93
2023-02-04T17:46:18.662Z,8.20
2023-02-04T17:48:45.588Z,8.98
2023-02-04T17:51:12.396Z,10.18
2023-02-04T17:53:40.438Z,9.25
2023-02-04T17:56:12.105Z,10.05
2023-02-04T18:01:16.625Z,7.82
2023-02-04T18:03:43.652Z,9.25
2023-02-04T18:06:20.249Z,9.00
2023-02-04T18:08:47.144Z,8.85
2023-02-04T18:11:21.413Z,8.60
2023-02-04T18:13:48.568Z,9.55
2023-02-04T18:16:27.489Z,9.63
2023-02-04T18:19:08.396Z,8.82
2023-02-04T18:21:38.842Z,9.07
2023-02-04T18:24:18.799Z,9.10
2023-02-04T18:26:52.033Z,8.43
2023-02-04T18:29:38.399Z,8.35
2023-02-04T18:32:24.960Z,8.48
2023-02-04T18:34:54.189Z,8.77
2023-02-04T18:37:37.444Z,7.95
2023-02-04T18:40:10.315Z,7.78
2023-02-04T18:42:39.280Z,7.85
2023-02-04T18:45:24.120Z,8.93
2023-02-04T18:47:55.064Z,7.30
2023-02-04T18:50:33.557Z,8.00
2023-02-04T18:53:16.440Z,8.30
2023-02-04T18:55:51.727Z,7.60
2023-02-04T18:58:34.052Z,7.15
2023-02-04T19:01:09.885Z,6.88
2023-02-04T19:04:09.911Z,6.95
2023-02-04T19:06:39.921Z,9.25
2023-02-04T19:09:26.755Z,9.35
2023-02-04T19:11:55.896Z,8.95
2023-02-04T19:14:40.205Z,8.80
2023-02-04T19:17:25.134Z,8.98
2023-02-04T19:20:17.741Z,7.82
2023-02-04T19:22:46.647Z,7.18
2023-02-04T19:25:28.487Z,7.22
2023-02-04T19:30:29.290Z,9.88
2023-02-04T19:32:57.455Z,12.45
2023-02-04T19:35:35.397Z,12.15
2023-02-04T19:38:29.950Z,11.80
2023-02-04T19:40:56.783Z,11.07
2023-02-04T19:43:37.203Z,12.13
2023-02-04T19:46:24.800Z,13.32
2023-02-04T19:48:51.679Z,12.35
2023-02-04T19:51:28.667Z,13.60
2023-02-04T19:54:01.593Z,13.32
2023-02-04T19:56:33.852Z,13.68
2023-02-04T19:59:23.375Z,14.63
2023-02-04T20:01:59.486Z,13.68
2023-02-04T20:04:36.325Z,14.75
2023-02-04T20:07:13.098Z,13.75
2023-02-04T20:09:39.713Z,13.43
2023-02-04T20:12:17.878Z,11.82
2023-02-04T20:14:59.533Z,14.50
2023-02-04T20:17:44.008Z,15.13
2023-02-04T20:20:18.395Z,17.10
2023-02-04T20:22:47.382Z,15.77
2023-02-04T20:25:20.598Z,14.70
2023-02-04T20:27:57.066Z,14.82
2023-02-04T20:30:28.369Z,15.68
2023-02-04T20:32:57.102Z,14.73
2023-02-04T20:35:31.745Z,15.32
2023-02-04T20:38:07.291Z,15.15
2023-02-04T20:40:35.900Z,15.98
2023-02-04T20:43:06.347Z,17.42
2023-02-04T20:45:51.859Z,15.43
2023-02-04T20:48:18.668Z,15.30
2023-02-04T20:50:52.956Z,15.98
2023-02-04T20:53:39.014Z,15.68
2023-02-04T20:56:25.217Z,16.38
2023-02-04T20:58:57.457Z,14.68
2023-02-04T21:02:11.469Z,14.07
2023-02-04T21:04:46.964Z,14.90
2023-02-04T21:07:17.740Z,14.70
2023-02-04T21:09:45.054Z,15.13
2023-02-04T21:12:11.788Z,13.00
2023-02-04T21:14:38.483Z,14.05
2023-02-04T21:17:05.538Z,13.48
2023-02-04T21:19:33.802Z,15.63
2023-02-04T21:22:00.815Z,15.52
2023-02-04T21:24:28.213Z,14.02
2023-02-04T21:26:54.919Z,16.00
2023-02-04T21:29:21.570Z,14.65
2023-02-04T21:31:48.321Z,14.77
2023-02-04T21:34:15.731Z,15.90
2023-02-04T21:36:42.547Z,15.68
2023-02-04T21:39:09.224Z,15.02
2023-02-04T21:41:35.912Z,13.50
2023-02-04T21:44:02.518Z,14.70
2023-02-04T21:46:29.289Z,16.85
2023-02-04T21:48:56.335Z,14.77
2023-02-04T21:51:22.962Z,18.67
2023-02-04T21:53:49.592Z,18.88
2023-02-04T21:56:16.263Z,15.57
2023-02-04T21:58:42.904Z,16.83
2023-02-04T22:01:10.376Z,14.15
2023-02-04T22:03:37.092Z,15.45
2023-02-04T22:06:03.899Z,16.23
2023-02-04T22:08:30.564Z,15.48
2023-02-04T22:10:57.293Z,14.48
2023-02-04T22:13:24.055Z,14.48
2023-02-04T22:15:50.683Z,14.60
2023-02-04T22:18:17.354Z,14.90
2023-02-04T22:20:43.980Z,15.48
2023-02-04T22:23:10.673Z,14.77
2023-02-04T22:25:37.375Z,14.82
2023-02-04T22:28:04.191Z,15.52
2023-02-04T22:30:30.973Z,13.93
2023-02-04T22:32:59.984Z,14.80
2023-02-04T22:35:27.783Z,15.32
2023-02-04T22:37:54.499Z,13.90
2023-02-04T22:40:21.289Z,13.32
2023-02-04T22:42:47.917Z,14.32
2023-02-04T22:45:14.710Z,14.85
2023-02-04T22:47:41.497Z,13.45
2023-02-04T22:50:08.633Z,13.40
2023-02-04T22:52:35.503Z,13.30
2023-02-04T22:55:02.221Z,15.90
2023-02-04T22:57:28.834Z,14.77
2023-02-04T22:59:55.479Z,13.90
2023-02-04T23:02:22.152Z,15.27
2023-02-04T23:04:48.823Z,15.27
2023-02-04T23:07:15.540Z,17.02
2023-02-04T23:09:42.189Z,15.40
2023-02-04T23:12:14.942Z,17.05
2023-02-04T23:14:44.035Z,15.63
2023-02-04T23:17:11.320Z,14.60
2023-02-04T23:19:38.845Z,14.13
2023-02-04T23:22:06.611Z,13.50
2023-02-04T23:24:34.340Z,12.23
2023-02-04T23:27:01.641Z,13.27
2023-02-04T23:29:28.858Z,12.20
2023-02-04T23:31:56.295Z,14.38
2023-02-04T23:34:22.972Z,13.48
2023-02-04T23:36:51.211Z,13.88
2023-02-04T23:39:19.639Z,13.05
2023-02-04T23:41:49.872Z,12.70
2023-02-04T23:44:16.596Z,11.95
2023-02-04T23:46:43.250Z,12.27
2023-02-04T23:49:10.284Z,12.63
2023-02-04T23:51:36.947Z,13.77
2023-02-04T23:54:03.979Z,14.00
2023-02-04T23:56:30.643Z,13.27
2023-02-04T23:58:57.315Z,14.75
